Airfield :







YOU CAN JOIN US ON...

 
LOGIN :

Register | Disclaimer

   EN    FR    IT 

 









Legend :    VFR   Marginal VFR   IFR   Intensive IFR   Very Intensive IFR
Visi :
Ceiling :
>= 8 km
>= 3000ft
5 to 8 km
1000 to 3000 ft
1500m to 5 km
500 to 1000 ft
800 to 1500m
200 to 500 ft
< 800m
< 200 ft
Symbols :   Thunderstorms  Fog  Heavy snow  Heavy precipitations  Wind > 20 kt






- Airport Elevation : 322 ft


KDAW - Skyhaven

CURRENT METAR :
  • 291418Z AUTO VRB05KT 10SM SCT024 BKN032 26/19 A2996 RMK AO2 T02610194

EXPIRED METARs :
  • 291351Z AUTO VRB06KT 10SM BKN024 BKN028 26/19 A2997 RMK AO2 SLP145 T02610194
  • 291251Z AUTO VRB04KT 10SM BKN017 BKN022 24/19 A2999 RMK AO2 SLP151 T02440194
  • 291210Z AUTO VRB04KT 10SM FEW013 OVC024 23/19 A3000 RMK AO2 T02330194
  • 291151Z AUTO 00000KT 10SM BKN013 OVC021 23/19 A3000 RMK AO2 SLP156 T02280194 10228 20217 51001

TAF N/A
KZBW FIR / North America



MET'MAP, your aeronautical weather chart ! - Copyright ORBIFLY December 2007 - Disclaimer

ORBIFLY MET'MAP TEAM :

Programming & Development : Alexandra Zaïnal
Concept & original design : Baudouin d'Aumeries
Assistance for programming : Marc-Olivier Méhu
Technical & hardware support : Manuel Goepfert

Contact : metmap@orbifly.com




SOURCES & CREDITS :

   NOAA